Terminal Aerodrome Forecast
Issued by NWS Wilmington, OH

Current Version | Previous Version | Graphics & Text | Print | Product List | Glossary On
Versions: 1 2 3 4 5 6 7 8 9 10 11 12 13 14 15 16 17 18 19 20 21 22 23 24 25
830
FTUS41 KILN 180907 AAA
TAFCVG
TAF AMD
KCVG 180907Z 1809/1912 20014G22KT P6SM VCSH OVC040 WS020/21050KT
     FM181400 20016G26KT P6SM VCSH OVC014
     FM182100 21016G26KT 4SM SHRA BR OVC012
     FM190000 29021G28KT 4SM -SHRA BR OVC015
     FM190200 30021G32KT P6SM OVC015
     FM190600 29017G27KT P6SM OVC025=

USA.gov is the U.S. government's official web portal to all federal, state and local government web resources and services.